createdAt,value
2017-07-30T00:00:40.120Z,90.60
2017-07-30T00:03:09.751Z,90.30
2017-07-30T00:05:39.698Z,90.60
2017-07-30T00:08:08.193Z,91.70
2017-07-30T00:10:37.050Z,92.50
2017-07-30T00:13:05.549Z,92.90
2017-07-30T00:15:34.420Z,92.70
2017-07-30T00:18:02.896Z,93.90
2017-07-30T00:20:32.165Z,93.90
2017-07-30T00:23:01.036Z,93.50
2017-07-30T00:28:00.087Z,91.80
2017-07-30T00:30:29.437Z,91.20
2017-07-30T00:32:58.082Z,91.20
2017-07-30T00:35:26.948Z,91.30
2017-07-30T00:37:55.819Z,90.50
2017-07-30T00:40:25.041Z,90.70
2017-07-30T00:42:53.939Z,91.30
2017-07-30T00:45:22.783Z,92.00
2017-07-30T00:47:51.367Z,91.60
2017-07-30T00:50:19.850Z,92.30
2017-07-30T00:52:48.676Z,92.50
2017-07-30T00:55:17.970Z,93.20
2017-07-30T00:57:46.900Z,93.80
2017-07-30T01:00:15.438Z,93.80
2017-07-30T01:02:45.064Z,94.30
2017-07-30T01:05:15.012Z,95.00
2017-07-30T01:07:44.784Z,95.90
2017-07-30T01:10:14.778Z,95.70
2017-07-30T01:12:43.256Z,95.40
2017-07-30T01:15:12.940Z,95.10
2017-07-30T01:17:42.536Z,95.00
2017-07-30T01:20:11.683Z,94.90
2017-07-30T01:22:41.626Z,95.00
2017-07-30T01:25:10.453Z,95.70
2017-07-30T01:27:39.815Z,95.60
2017-07-30T01:30:08.287Z,95.80
2017-07-30T01:32:37.192Z,95.80
2017-07-30T01:35:06.028Z,95.90
2017-07-30T01:37:35.273Z,95.90
2017-07-30T01:40:04.504Z,96.00
2017-07-30T01:42:33.790Z,96.20
2017-07-30T01:45:03.134Z,96.50
2017-07-30T01:47:31.983Z,96.60
2017-07-30T01:50:00.430Z,96.40
2017-07-30T01:52:28.921Z,96.70
2017-07-30T01:54:59.128Z,96.50
2017-07-30T01:57:27.581Z,96.30
2017-07-30T01:59:56.432Z,95.60
2017-07-30T02:02:25.351Z,95.60
2017-07-30T02:04:53.849Z,96.10
2017-07-30T02:07:23.792Z,96.10
2017-07-30T02:09:52.694Z,96.50
2017-07-30T02:12:22.291Z,96.60
2017-07-30T02:14:51.498Z,97.10
2017-07-30T02:17:20.442Z,97.40
2017-07-30T02:19:50.334Z,96.60
2017-07-30T02:22:18.779Z,95.40
2017-07-30T02:24:48.072Z,94.70
2017-07-30T02:27:16.551Z,94.40
2017-07-30T02:29:45.769Z,94.10
2017-07-30T02:32:14.263Z,94.20
2017-07-30T02:34:43.097Z,94.70
2017-07-30T02:37:12.028Z,95.30
2017-07-30T02:39:42.039Z,95.50
2017-07-30T02:42:11.313Z,96.20
2017-07-30T02:44:39.773Z,96.40
2017-07-30T02:47:08.219Z,96.60
2017-07-30T02:49:36.771Z,96.00
2017-07-30T02:52:05.240Z,95.50
2017-07-30T02:54:34.357Z,95.80
2017-07-30T02:59:32.314Z,96.40
2017-07-30T03:02:01.980Z,96.50
2017-07-30T03:04:31.580Z,97.00
2017-07-30T03:07:01.136Z,96.40
2017-07-30T03:09:29.596Z,95.20
2017-07-30T03:11:58.054Z,94.90
2017-07-30T03:14:26.575Z,94.90
2017-07-30T03:16:55.208Z,95.80
2017-07-30T03:19:23.686Z,95.90
2017-07-30T03:21:52.167Z,96.20
2017-07-30T03:24:20.447Z,95.40
2017-07-30T03:26:48.931Z,95.40
2017-07-30T03:31:48.105Z,94.90
2017-07-30T03:34:16.999Z,94.30
2017-07-30T03:36:45.876Z,94.30
2017-07-30T03:39:14.737Z,94.10
2017-07-30T03:41:43.202Z,94.90
2017-07-30T03:44:11.914Z,95.30
2017-07-30T03:46:40.756Z,96.20
2017-07-30T03:49:09.216Z,96.90
2017-07-30T03:51:38.294Z,97.10
2017-07-30T03:54:07.170Z,97.30
2017-07-30T03:56:35.606Z,97.10
2017-07-30T03:59:04.104Z,96.10
2017-07-30T04:09:08.651Z,94.00
2017-07-30T04:11:37.092Z,93.70
2017-07-30T04:14:05.924Z,93.10
2017-07-30T04:16:36.008Z,93.30
2017-07-30T04:19:05.208Z,93.20
2017-07-30T04:21:35.666Z,92.90
2017-07-30T04:24:04.101Z,93.00
2017-07-30T04:26:32.526Z,92.80
2017-07-30T04:29:01.795Z,93.20
2017-07-30T04:31:30.990Z,93.20
2017-07-30T04:34:00.184Z,93.60
2017-07-30T04:36:29.426Z,93.70
2017-07-30T04:38:58.260Z,92.20
2017-07-30T04:41:26.739Z,90.90
2017-07-30T04:43:55.225Z,90.50
2017-07-30T04:46:24.421Z,90.50
2017-07-30T04:48:52.853Z,90.20
2017-07-30T04:51:21.719Z,89.70
2017-07-30T04:53:50.146Z,90.00
2017-07-30T04:56:18.613Z,88.90
2017-07-30T04:58:47.038Z,87.90
2017-07-30T05:01:15.541Z,86.80
2017-07-30T05:03:43.971Z,85.80
2017-07-30T05:06:12.403Z,85.40
2017-07-30T05:08:40.871Z,85.00
2017-07-30T05:11:09.301Z,83.60
2017-07-30T05:13:37.742Z,81.20
2017-07-30T05:16:06.258Z,77.50
2017-07-30T05:18:34.729Z,75.10
2017-07-30T05:21:03.164Z,72.20
2017-07-30T05:23:31.603Z,70.20
2017-07-30T05:26:00.321Z,70.90
2017-07-30T05:28:28.750Z,73.10
2017-07-30T05:30:57.621Z,74.00
2017-07-30T05:33:26.089Z,68.70
2017-07-30T05:35:54.509Z,65.50
2017-07-30T05:38:22.981Z,63.90
2017-07-30T05:40:51.460Z,60.50
2017-07-30T05:43:19.897Z,60.20
2017-07-30T05:45:48.822Z,61.70
2017-07-30T05:48:17.649Z,59.20
2017-07-30T05:50:46.081Z,55.30
2017-07-30T05:53:14.957Z,55.60
2017-07-30T05:55:43.402Z,57.90
2017-07-30T05:58:11.831Z,53.30
2017-07-30T06:00:41.495Z,49.40
2017-07-30T06:03:09.929Z,48.50
2017-07-30T06:05:38.391Z,48.70
2017-07-30T06:08:07.694Z,44.80
2017-07-30T06:10:36.131Z,43.50
2017-07-30T06:13:04.557Z,41.40
2017-07-30T06:15:33.033Z,41.70
2017-07-30T06:18:01.463Z,40.10
2017-07-30T06:20:29.893Z,43.10
2017-07-30T06:22:58.548Z,45.10
2017-07-30T06:25:26.975Z,43.80
2017-07-30T06:27:55.402Z,42.00
2017-07-30T06:30:23.886Z,41.40
2017-07-30T06:32:52.331Z,38.10
2017-07-30T06:35:20.760Z,37.00
2017-07-30T06:37:49.256Z,37.00
2017-07-30T06:40:17.699Z,36.60
2017-07-30T06:42:46.146Z,37.80
2017-07-30T06:45:14.609Z,36.00
2017-07-30T06:47:43.031Z,34.20
2017-07-30T06:50:12.223Z,33.10
2017-07-30T06:52:40.716Z,33.10
2017-07-30T06:55:09.151Z,36.30
2017-07-30T06:57:38.047Z,35.20
2017-07-30T07:00:06.492Z,35.90
2017-07-30T07:02:34.923Z,37.30
2017-07-30T07:05:03.411Z,37.30
2017-07-30T07:07:31.850Z,34.60
2017-07-30T07:10:00.282Z,34.50
2017-07-30T07:12:28.811Z,32.40
2017-07-30T07:14:57.244Z,31.00
2017-07-30T07:17:26.448Z,30.60
2017-07-30T07:19:54.920Z,33.00
2017-07-30T07:22:23.795Z,33.20
2017-07-30T07:24:52.229Z,34.30
2017-07-30T07:27:20.751Z,32.70
2017-07-30T07:29:49.197Z,31.50
2017-07-30T07:32:18.404Z,30.40
2017-07-30T07:34:47.694Z,28.90
2017-07-30T07:37:17.252Z,29.70
2017-07-30T07:39:45.698Z,28.30
2017-07-30T07:42:14.180Z,27.90
2017-07-30T07:44:42.656Z,28.40
2017-07-30T07:47:11.098Z,28.90
2017-07-30T07:49:39.523Z,29.30
2017-07-30T07:52:08.017Z,28.70
2017-07-30T07:54:36.869Z,29.80
2017-07-30T07:57:05.322Z,29.80
2017-07-30T07:59:34.452Z,30.90
2017-07-30T08:02:03.668Z,30.20
2017-07-30T08:04:32.102Z,30.50
2017-07-30T08:07:00.600Z,31.40
2017-07-30T08:09:29.043Z,33.40
2017-07-30T08:11:57.885Z,34.10
2017-07-30T08:14:26.045Z,33.90
2017-07-30T08:16:54.479Z,33.70
2017-07-30T08:19:23.694Z,33.40
2017-07-30T08:21:52.189Z,33.60
2017-07-30T08:24:21.182Z,33.40
2017-07-30T08:26:50.367Z,31.70
2017-07-30T08:29:19.983Z,34.60
2017-07-30T08:31:48.415Z,32.60
2017-07-30T08:34:18.414Z,30.90
2017-07-30T08:36:47.615Z,32.00
2017-07-30T08:39:16.121Z,30.60
2017-07-30T08:41:44.564Z,30.50
2017-07-30T08:44:13.783Z,30.50
2017-07-30T08:46:42.658Z,30.80
2017-07-30T08:49:12.041Z,30.60
2017-07-30T08:51:40.493Z,30.70
2017-07-30T08:54:09.355Z,31.00
2017-07-30T08:56:38.227Z,29.60
2017-07-30T08:59:07.049Z,30.30
2017-07-30T09:01:35.525Z,28.40
2017-07-30T09:04:03.998Z,29.00
2017-07-30T09:06:32.440Z,31.40
2017-07-30T09:09:00.924Z,32.30
2017-07-30T09:11:30.171Z,31.90
2017-07-30T09:13:59.424Z,33.00
2017-07-30T09:16:28.620Z,31.90
2017-07-30T09:18:57.103Z,29.80
2017-07-30T09:21:25.547Z,28.90
2017-07-30T09:23:54.374Z,30.90
2017-07-30T09:26:23.268Z,30.70
2017-07-30T09:28:51.694Z,30.30
2017-07-30T09:31:20.940Z,30.90
2017-07-30T09:33:50.200Z,31.60
2017-07-30T09:36:18.644Z,29.20
2017-07-30T09:38:47.486Z,28.60
2017-07-30T09:41:15.961Z,27.50
2017-07-30T09:43:44.784Z,26.60
2017-07-30T09:46:13.628Z,27.10
2017-07-30T09:48:43.325Z,25.10
2017-07-30T09:51:11.748Z,26.20
2017-07-30T09:53:41.248Z,26.90
2017-07-30T09:56:10.138Z,26.50
2017-07-30T09:58:39.009Z,26.30
2017-07-30T10:01:07.423Z,25.70
2017-07-30T10:03:35.932Z,27.60
2017-07-30T10:06:05.664Z,27.80
2017-07-30T10:08:34.113Z,27.80
2017-07-30T10:11:02.948Z,26.40
2017-07-30T10:13:31.773Z,25.60
2017-07-30T10:16:00.254Z,25.20
2017-07-30T10:18:29.826Z,25.80
2017-07-30T10:23:28.116Z,26.50
2017-07-30T10:25:57.367Z,25.90
2017-07-30T10:28:26.225Z,25.20
2017-07-30T10:30:55.428Z,25.00
2017-07-30T10:33:24.332Z,24.60
2017-07-30T10:35:53.183Z,24.40
2017-07-30T10:38:22.012Z,25.50
2017-07-30T10:40:51.272Z,26.10
2017-07-30T10:43:19.703Z,27.20
2017-07-30T10:45:48.930Z,26.00
2017-07-30T10:48:18.164Z,25.90
2017-07-30T10:50:46.996Z,26.60
2017-07-30T10:53:15.470Z,26.50
2017-07-30T10:55:44.349Z,24.90
2017-07-30T10:58:13.559Z,23.10
2017-07-30T11:00:42.389Z,24.70
2017-07-30T11:03:11.259Z,25.00
2017-07-30T11:05:39.779Z,23.70
2017-07-30T11:08:08.202Z,24.10
2017-07-30T11:10:36.663Z,23.00
2017-07-30T11:13:05.868Z,22.90
2017-07-30T11:15:34.795Z,23.30
2017-07-30T11:18:03.614Z,23.60
2017-07-30T11:23:01.871Z,26.60
2017-07-30T11:25:31.194Z,26.30
2017-07-30T11:28:00.031Z,30.00
2017-07-30T11:30:28.459Z,28.80
2017-07-30T11:32:56.910Z,25.30
2017-07-30T11:35:25.528Z,24.20
2017-07-30T11:37:54.351Z,22.40
2017-07-30T11:40:23.600Z,22.90
2017-07-30T11:42:52.439Z,22.90
2017-07-30T11:45:20.861Z,22.60
2017-07-30T11:47:49.440Z,23.80
2017-07-30T11:50:18.271Z,24.10
2017-07-30T11:52:46.694Z,23.30
2017-07-30T11:55:15.952Z,23.00
2017-07-30T11:57:44.417Z,21.60
2017-07-30T12:00:12.846Z,23.00
2017-07-30T12:02:41.308Z,24.00
2017-07-30T12:05:10.554Z,22.80
2017-07-30T12:07:38.994Z,21.70
2017-07-30T12:10:08.192Z,21.80
2017-07-30T12:12:36.696Z,22.90
2017-07-30T12:15:05.894Z,22.80
2017-07-30T12:17:34.317Z,23.30
2017-07-30T12:20:02.782Z,23.20
2017-07-30T12:22:31.084Z,22.10
2017-07-30T12:24:59.912Z,21.20
2017-07-30T12:27:28.356Z,20.90
2017-07-30T12:29:56.861Z,21.30
2017-07-30T12:32:25.905Z,24.40
2017-07-30T12:34:54.353Z,28.50
2017-07-30T12:37:23.618Z,28.20
2017-07-30T12:39:52.851Z,26.50
2017-07-30T12:42:21.688Z,29.80
2017-07-30T12:44:50.502Z,33.80
2017-07-30T12:47:18.966Z,38.40
2017-07-30T12:49:47.399Z,46.70
2017-07-30T12:52:16.265Z,55.50
2017-07-30T12:54:45.263Z,62.20
2017-07-30T12:57:14.130Z,71.80
2017-07-30T12:59:43.340Z,76.40
2017-07-30T13:02:12.177Z,67.90
2017-07-30T13:04:41.013Z,65.70
2017-07-30T13:07:09.907Z,65.60
2017-07-30T13:09:39.103Z,69.00
2017-07-30T13:12:07.944Z,68.40
2017-07-30T13:14:36.380Z,60.80
2017-07-30T13:17:05.621Z,62.00
2017-07-30T13:19:34.463Z,65.70
2017-07-30T13:22:03.668Z,64.70
2017-07-30T13:24:32.896Z,66.80
2017-07-30T13:27:01.726Z,60.90
2017-07-30T13:29:30.205Z,61.50
2017-07-30T13:31:58.461Z,61.50
2017-07-30T13:34:26.893Z,66.20
2017-07-30T13:36:55.769Z,63.40
2017-07-30T13:39:25.056Z,62.90
2017-07-30T13:41:53.492Z,66.90
2017-07-30T13:44:22.699Z,70.70
2017-07-30T13:46:51.179Z,71.80
2017-07-30T13:49:19.292Z,67.60
2017-07-30T13:51:47.816Z,66.40
2017-07-30T13:54:17.015Z,65.80
2017-07-30T13:56:46.611Z,61.90
2017-07-30T13:59:15.103Z,55.80
2017-07-30T14:01:44.295Z,47.50
2017-07-30T14:04:12.740Z,43.10
2017-07-30T14:06:41.224Z,42.60
2017-07-30T14:09:09.680Z,42.70
2017-07-30T14:14:08.041Z,55.90
2017-07-30T14:16:36.891Z,54.10
2017-07-30T14:19:05.779Z,55.90
2017-07-30T14:21:34.216Z,57.50
2017-07-30T14:24:02.640Z,58.90
2017-07-30T14:26:31.126Z,58.20
2017-07-30T14:28:59.610Z,60.10
2017-07-30T14:31:29.197Z,59.20
2017-07-30T14:33:57.692Z,60.60
2017-07-30T14:36:26.132Z,59.50
2017-07-30T14:38:54.389Z,60.10
2017-07-30T14:41:23.656Z,58.80
2017-07-30T14:43:52.118Z,57.90
2017-07-30T14:46:20.621Z,58.70
2017-07-30T14:48:49.483Z,59.70
2017-07-30T14:51:17.960Z,60.30
2017-07-30T14:53:46.455Z,60.80
2017-07-30T14:56:14.876Z,61.50
2017-07-30T14:58:43.700Z,59.80
2017-07-30T15:01:12.173Z,56.30
2017-07-30T15:03:40.634Z,54.50
2017-07-30T15:06:09.076Z,54.50
2017-07-30T15:08:37.565Z,51.40
2017-07-30T15:11:06.009Z,45.60
2017-07-30T15:13:34.869Z,49.50
2017-07-30T15:16:04.065Z,50.90
2017-07-30T15:18:32.542Z,49.10
2017-07-30T15:21:01.813Z,47.80
2017-07-30T15:23:30.260Z,49.60
2017-07-30T15:25:58.707Z,48.90
2017-07-30T15:28:27.027Z,47.90
2017-07-30T15:30:55.712Z,46.30
2017-07-30T15:33:24.166Z,44.40
2017-07-30T15:35:52.655Z,44.20
2017-07-30T15:38:20.923Z,42.20
2017-07-30T15:40:49.357Z,42.60
2017-07-30T15:43:17.826Z,41.40
2017-07-30T15:45:46.264Z,42.40
2017-07-30T15:48:14.718Z,44.10
2017-07-30T15:50:43.192Z,44.30
2017-07-30T15:53:11.637Z,44.30
2017-07-30T15:55:40.088Z,44.10
2017-07-30T15:58:08.556Z,43.60
2017-07-30T16:00:36.996Z,44.00
2017-07-30T16:03:05.919Z,45.40
2017-07-30T16:05:35.128Z,46.90
2017-07-30T16:08:03.565Z,47.50
2017-07-30T16:10:32.056Z,46.00
2017-07-30T16:13:00.477Z,43.60
2017-07-30T16:15:28.940Z,42.10
2017-07-30T16:17:58.201Z,42.50
2017-07-30T16:20:26.700Z,40.50
2017-07-30T16:22:55.156Z,42.10
2017-07-30T16:25:23.606Z,41.60
2017-07-30T16:27:52.112Z,41.90
2017-07-30T16:30:20.542Z,43.00
2017-07-30T16:32:48.984Z,44.40
2017-07-30T16:35:17.497Z,43.50
2017-07-30T16:37:46.703Z,44.10
2017-07-30T16:40:15.557Z,44.30
2017-07-30T16:42:44.395Z,44.40
2017-07-30T16:45:13.595Z,45.40
2017-07-30T16:47:42.044Z,47.10
2017-07-30T16:50:11.296Z,47.90
2017-07-30T16:52:39.779Z,48.60
2017-07-30T16:55:08.620Z,50.10
2017-07-30T16:57:37.148Z,50.10
2017-07-30T17:00:06.053Z,49.40
2017-07-30T17:02:34.490Z,49.00
2017-07-30T17:05:03.678Z,49.50
2017-07-30T17:07:32.530Z,48.20
2017-07-30T17:10:00.985Z,46.10
2017-07-30T17:12:29.408Z,44.90
2017-07-30T17:14:57.895Z,44.50
2017-07-30T17:17:26.340Z,46.20
2017-07-30T17:19:54.799Z,48.50
2017-07-30T17:22:24.721Z,49.30
2017-07-30T17:24:53.919Z,49.10
2017-07-30T17:27:22.350Z,47.40
2017-07-30T17:29:50.844Z,48.50
2017-07-30T17:32:19.290Z,48.90
2017-07-30T17:34:47.716Z,49.00
2017-07-30T17:37:17.776Z,50.50
2017-07-30T17:39:46.227Z,50.90
2017-07-30T17:42:14.665Z,53.00
2017-07-30T17:44:43.147Z,53.90
2017-07-30T17:47:11.975Z,55.40
2017-07-30T17:49:41.180Z,56.60
2017-07-30T17:52:09.603Z,57.00
2017-07-30T17:54:38.082Z,59.20
2017-07-30T17:57:06.510Z,62.10
2017-07-30T17:59:34.934Z,63.40
2017-07-30T18:02:03.414Z,65.40
2017-07-30T18:04:31.949Z,66.70
2017-07-30T18:07:01.146Z,68.70
2017-07-30T18:09:30.386Z,68.70
2017-07-30T18:11:58.867Z,70.50
2017-07-30T18:14:27.340Z,71.50
2017-07-30T18:16:55.609Z,73.30
2017-07-30T18:19:24.123Z,73.90
2017-07-30T18:21:53.388Z,74.70
2017-07-30T18:24:22.212Z,74.10
2017-07-30T18:26:50.653Z,74.10
2017-07-30T18:29:19.135Z,73.00
2017-07-30T18:31:48.011Z,73.80
2017-07-30T18:34:16.448Z,75.70
2017-07-30T18:36:44.918Z,77.50
2017-07-30T18:39:13.429Z,80.30
2017-07-30T18:41:42.247Z,85.80
2017-07-30T18:44:10.677Z,85.80
2017-07-30T18:46:39.545Z,85.90
2017-07-30T18:49:07.977Z,88.80
2017-07-30T18:51:36.827Z,88.40
2017-07-30T18:54:05.294Z,88.10
2017-07-30T18:56:34.186Z,88.50
2017-07-30T18:59:02.670Z,90.20
2017-07-30T19:01:31.512Z,91.90
2017-07-30T19:04:00.360Z,97.20
2017-07-30T19:06:28.829Z,96.20
2017-07-30T19:08:57.313Z,97.10
2017-07-30T19:11:26.888Z,99.30
2017-07-30T19:13:55.326Z,99.90
2017-07-30T19:16:24.521Z,99.90
2017-07-30T19:18:53.040Z,99.90
2017-07-30T19:21:21.868Z,99.90
2017-07-30T19:23:50.703Z,99.90
2017-07-30T19:26:19.163Z,99.90
2017-07-30T19:28:47.471Z,99.90
2017-07-30T19:31:16.571Z,99.90
2017-07-30T19:33:45.783Z,99.90
2017-07-30T19:36:14.283Z,99.90
2017-07-30T19:38:43.133Z,99.90
2017-07-30T19:41:11.575Z,99.90
2017-07-30T19:43:40.865Z,99.90
2017-07-30T19:46:09.342Z,99.90
2017-07-30T19:48:38.147Z,99.90
2017-07-30T19:51:06.984Z,99.90
2017-07-30T19:53:35.428Z,99.90
2017-07-30T19:56:03.920Z,99.90
2017-07-30T19:58:33.128Z,99.90
2017-07-30T20:01:02.008Z,99.90
2017-07-30T20:03:30.839Z,99.90
2017-07-30T20:05:59.268Z,99.90
2017-07-30T20:08:27.738Z,99.90
2017-07-30T20:10:56.556Z,99.90
2017-07-30T20:13:25.398Z,99.90
2017-07-30T20:15:54.148Z,99.90
2017-07-30T20:18:22.579Z,99.90
2017-07-30T20:20:51.018Z,99.90
2017-07-30T20:23:20.278Z,99.90
2017-07-30T20:25:48.899Z,99.90
2017-07-30T20:28:17.780Z,99.90
2017-07-30T20:30:46.223Z,99.90
2017-07-30T20:33:14.656Z,99.90
2017-07-30T20:35:43.166Z,99.90
2017-07-30T20:38:11.631Z,99.90
2017-07-30T20:40:40.475Z,99.90
2017-07-30T20:43:08.940Z,99.90
2017-07-30T20:45:37.378Z,99.90
2017-07-30T20:48:05.874Z,99.90
2017-07-30T20:50:35.091Z,99.90
2017-07-30T20:53:03.527Z,99.90
2017-07-30T20:55:32.406Z,99.90
2017-07-30T20:58:01.300Z,99.90
2017-07-30T21:00:31.230Z,99.90
2017-07-30T21:02:59.679Z,99.90
2017-07-30T21:05:28.169Z,99.90
2017-07-30T21:07:56.999Z,99.90
2017-07-30T21:10:25.435Z,99.90
2017-07-30T21:12:53.914Z,99.90
2017-07-30T21:15:22.755Z,99.90
2017-07-30T21:17:51.191Z,99.90
2017-07-30T21:20:19.827Z,99.90
2017-07-30T21:22:48.536Z,99.90
2017-07-30T21:25:16.984Z,99.90
2017-07-30T21:27:45.415Z,99.90
2017-07-30T21:30:13.902Z,99.90
2017-07-30T21:32:42.732Z,99.90
2017-07-30T21:35:12.022Z,99.90
2017-07-30T21:37:40.472Z,99.90
2017-07-30T21:40:08.943Z,99.90
2017-07-30T21:42:38.147Z,99.90
2017-07-30T21:45:06.587Z,99.90
2017-07-30T21:47:35.462Z,99.90
2017-07-30T21:50:04.288Z,99.90
2017-07-30T21:52:33.142Z,99.90
2017-07-30T21:55:01.623Z,99.90
2017-07-30T21:57:30.448Z,99.90
2017-07-30T21:59:58.885Z,99.90
2017-07-30T22:02:27.636Z,99.90
2017-07-30T22:04:57.222Z,99.90
2017-07-30T22:07:26.451Z,99.90
2017-07-30T22:09:58.530Z,99.90
2017-07-30T22:12:27.436Z,99.90
2017-07-30T22:14:57.440Z,99.90
2017-07-30T22:17:27.438Z,99.90
2017-07-30T22:19:55.904Z,99.90
2017-07-30T22:22:25.501Z,99.90
2017-07-30T22:24:54.722Z,99.90
2017-07-30T22:29:53.064Z,99.90
2017-07-30T22:32:22.275Z,99.90
2017-07-30T22:34:51.520Z,99.40
2017-07-30T22:39:49.903Z,99.20
2017-07-30T22:42:18.749Z,99.90
2017-07-30T22:44:47.229Z,99.90
2017-07-30T22:47:16.305Z,99.90
2017-07-30T22:49:45.160Z,99.90
2017-07-30T22:54:43.532Z,99.90
2017-07-30T22:57:12.786Z,99.90
2017-07-30T22:59:45.166Z,99.90
2017-07-30T23:02:13.609Z,99.90
2017-07-30T23:04:42.841Z,99.90
2017-07-30T23:07:12.537Z,99.90
2017-07-30T23:09:42.513Z,99.90
2017-07-30T23:14:41.565Z,99.90
2017-07-30T23:17:10.394Z,99.90
2017-07-30T23:19:39.245Z,99.90
2017-07-30T23:22:08.491Z,99.90
2017-07-30T23:24:38.430Z,99.90
2017-07-30T23:27:08.058Z,99.10
2017-07-30T23:29:37.037Z,98.10
2017-07-30T23:32:05.606Z,98.60
2017-07-30T23:39:33.773Z,99.60
2017-07-30T23:42:02.637Z,99.90
2017-07-30T23:44:31.092Z,99.90
2017-07-30T23:47:00.376Z,99.90
2017-07-30T23:51:59.800Z,99.30
2017-07-30T23:54:29.423Z,96.10
2017-07-30T23:56:58.638Z,97.80
2017-07-30T23:59:27.867Z,97.80
